createdAt,value
2018-07-15T00:02:05.293Z,73.00
2018-07-15T00:04:33.662Z,73.20
2018-07-15T00:07:02.053Z,73.30
2018-07-15T00:09:30.406Z,73.10
2018-07-15T00:11:58.798Z,73.50
2018-07-15T00:14:27.157Z,73.60
2018-07-15T00:16:55.569Z,73.90
2018-07-15T00:19:23.913Z,73.80
2018-07-15T00:21:53.134Z,73.90
2018-07-15T00:24:21.505Z,74.10
2018-07-15T00:26:50.074Z,74.30
2018-07-15T00:29:18.417Z,74.60
2018-07-15T00:31:46.805Z,74.60
2018-07-15T00:34:15.168Z,75.10
2018-07-15T00:36:43.569Z,75.40
2018-07-15T00:39:11.911Z,75.10
2018-07-15T00:41:40.369Z,75.20
2018-07-15T00:44:08.741Z,75.30
2018-07-15T00:46:37.093Z,75.40
2018-07-15T00:49:05.446Z,75.50
2018-07-15T00:51:33.838Z,75.30
2018-07-15T00:54:02.462Z,75.60
2018-07-15T00:56:30.829Z,75.60
2018-07-15T00:58:59.209Z,75.70
2018-07-15T01:01:27.587Z,75.80
2018-07-15T01:03:55.990Z,75.80
2018-07-15T01:06:24.437Z,75.80
2018-07-15T01:08:52.869Z,76.00
2018-07-15T01:11:21.306Z,76.30
2018-07-15T01:13:49.694Z,76.30
2018-07-15T01:16:18.061Z,76.60
2018-07-15T01:18:46.443Z,76.70
2018-07-15T01:21:14.866Z,77.00
2018-07-15T01:23:43.249Z,77.40
2018-07-15T01:26:11.638Z,77.50
2018-07-15T01:28:40.022Z,77.90
2018-07-15T01:31:08.412Z,78.20
2018-07-15T01:33:36.786Z,78.40
2018-07-15T01:36:05.181Z,78.70
2018-07-15T01:38:33.558Z,78.70
2018-07-15T01:41:01.970Z,79.00
2018-07-15T01:43:30.405Z,78.70
2018-07-15T01:45:58.762Z,78.70
2018-07-15T01:48:27.149Z,78.70
2018-07-15T01:50:55.538Z,78.80
2018-07-15T01:53:23.918Z,79.00
2018-07-15T01:55:52.306Z,78.90
2018-07-15T01:58:20.694Z,79.20
2018-07-15T02:00:49.065Z,79.60
2018-07-15T02:03:17.454Z,79.80
2018-07-15T02:05:45.818Z,80.30
2018-07-15T02:08:14.366Z,80.40
2018-07-15T02:10:42.726Z,80.50
2018-07-15T02:13:11.117Z,80.40
2018-07-15T02:15:39.497Z,80.40
2018-07-15T02:18:07.922Z,80.40
2018-07-15T02:20:36.305Z,80.50
2018-07-15T02:23:04.701Z,80.70
2018-07-15T02:25:33.093Z,80.90
2018-07-15T02:28:01.477Z,81.10
2018-07-15T02:30:29.881Z,81.20
2018-07-15T02:32:58.270Z,81.20
2018-07-15T02:35:26.678Z,81.20
2018-07-15T02:37:55.135Z,81.10
2018-07-15T02:40:23.509Z,81.20
2018-07-15T02:42:51.945Z,81.20
2018-07-15T02:45:20.362Z,81.10
2018-07-15T02:47:48.754Z,81.10
2018-07-15T02:50:17.129Z,80.90
2018-07-15T02:52:45.515Z,81.10
2018-07-15T02:55:13.969Z,81.00
2018-07-15T02:57:42.329Z,81.10
2018-07-15T03:00:10.709Z,81.20
2018-07-15T03:02:39.078Z,81.20
2018-07-15T03:05:07.487Z,81.40
2018-07-15T03:07:35.841Z,81.30
2018-07-15T03:10:04.262Z,81.40
2018-07-15T03:12:32.621Z,81.50
2018-07-15T03:15:01.625Z,81.70
2018-07-15T03:17:30.034Z,81.90
2018-07-15T03:19:58.415Z,82.20
2018-07-15T03:22:26.754Z,82.30
2018-07-15T03:24:55.130Z,82.40
2018-07-15T03:27:23.482Z,82.40
2018-07-15T03:29:51.856Z,82.40
2018-07-15T03:32:20.221Z,82.20
2018-07-15T03:34:48.589Z,82.40
2018-07-15T03:37:16.949Z,82.70
2018-07-15T03:39:45.321Z,82.90
2018-07-15T03:42:13.689Z,83.00
2018-07-15T03:44:42.077Z,83.30
2018-07-15T03:47:10.425Z,82.90
2018-07-15T03:49:38.817Z,82.90
2018-07-15T03:52:07.222Z,82.80
2018-07-15T03:54:35.622Z,82.50
2018-07-15T03:57:04.022Z,82.60
2018-07-15T03:59:32.402Z,82.50
2018-07-15T04:02:00.926Z,82.60
2018-07-15T04:04:29.309Z,82.60
2018-07-15T04:06:57.666Z,82.90
2018-07-15T04:09:26.044Z,82.90
2018-07-15T04:11:54.394Z,82.80
2018-07-15T04:14:22.776Z,82.80
2018-07-15T04:16:51.137Z,82.80
2018-07-15T04:19:19.520Z,82.90
2018-07-15T04:21:47.869Z,83.20
2018-07-15T04:24:16.402Z,83.30
2018-07-15T04:26:44.751Z,83.40
2018-07-15T04:29:13.150Z,83.50
2018-07-15T04:31:41.501Z,83.30
2018-07-15T04:34:09.894Z,83.70
2018-07-15T04:36:38.257Z,83.30
2018-07-15T04:39:07.834Z,83.20
2018-07-15T04:41:36.206Z,83.00
2018-07-15T04:44:04.626Z,83.10
2018-07-15T04:46:32.973Z,83.00
2018-07-15T04:49:01.444Z,83.10
2018-07-15T04:51:29.809Z,83.10
2018-07-15T04:53:58.181Z,82.90
2018-07-15T04:56:26.549Z,83.00
2018-07-15T04:58:54.937Z,82.80
2018-07-15T05:01:23.445Z,82.70
2018-07-15T05:03:51.850Z,83.00
2018-07-15T05:06:20.237Z,82.60
2018-07-15T05:08:48.575Z,82.60
2018-07-15T05:11:17.022Z,82.20
2018-07-15T05:13:45.321Z,82.70
2018-07-15T05:16:13.694Z,82.20
2018-07-15T05:18:42.068Z,82.60
2018-07-15T05:21:10.433Z,82.40
2018-07-15T05:23:38.793Z,82.40
2018-07-15T05:26:07.158Z,82.10
2018-07-15T05:28:35.511Z,81.60
2018-07-15T05:31:03.881Z,80.90
2018-07-15T05:33:32.250Z,80.50
2018-07-15T05:36:00.633Z,80.00
2018-07-15T05:38:29.006Z,78.90
2018-07-15T05:40:57.397Z,78.50
2018-07-15T05:43:25.773Z,77.60
2018-07-15T05:45:54.140Z,76.10
2018-07-15T05:48:22.501Z,75.20
2018-07-15T05:50:50.896Z,74.10
2018-07-15T05:53:19.245Z,73.50
2018-07-15T05:55:47.858Z,73.30
2018-07-15T05:58:16.277Z,72.90
2018-07-15T06:00:44.690Z,71.00
2018-07-15T06:03:13.128Z,70.80
2018-07-15T06:05:41.682Z,69.50
2018-07-15T06:08:10.086Z,69.00
2018-07-15T06:10:38.525Z,68.50
2018-07-15T06:13:06.926Z,68.20
2018-07-15T06:15:35.326Z,66.80
2018-07-15T06:18:03.835Z,66.50
2018-07-15T06:20:32.193Z,66.50
2018-07-15T06:23:00.664Z,65.90
2018-07-15T06:25:29.109Z,65.50
2018-07-15T06:27:57.497Z,65.70
2018-07-15T06:30:25.901Z,65.90
2018-07-15T06:32:54.261Z,66.10
2018-07-15T06:35:22.691Z,65.70
2018-07-15T06:37:51.318Z,64.90
2018-07-15T06:40:19.714Z,65.20
2018-07-15T06:42:48.078Z,65.40
2018-07-15T06:45:16.460Z,63.90
2018-07-15T06:47:44.846Z,64.40
2018-07-15T06:50:13.240Z,63.20
2018-07-15T06:52:41.622Z,62.90
2018-07-15T06:55:10.064Z,63.40
2018-07-15T06:57:38.457Z,63.30
2018-07-15T07:00:07.882Z,64.30
2018-07-15T07:02:36.269Z,63.90
2018-07-15T07:05:04.669Z,63.10
2018-07-15T07:07:33.156Z,62.60
2018-07-15T07:10:01.485Z,63.20
2018-07-15T07:12:29.908Z,61.00
2018-07-15T07:14:58.321Z,60.40
2018-07-15T07:17:26.709Z,60.00
2018-07-15T07:19:55.134Z,59.00
2018-07-15T07:22:23.550Z,57.70
2018-07-15T07:24:51.907Z,57.30
2018-07-15T07:27:20.317Z,57.60
2018-07-15T07:29:48.671Z,58.30
2018-07-15T07:32:17.116Z,57.40
2018-07-15T07:34:45.490Z,56.90
2018-07-15T07:37:13.895Z,57.00
2018-07-15T07:39:42.434Z,57.00
2018-07-15T07:42:10.850Z,55.00
2018-07-15T07:44:39.332Z,55.00
2018-07-15T07:47:07.750Z,54.70
2018-07-15T07:49:36.113Z,56.70
2018-07-15T07:52:04.501Z,56.70
2018-07-15T07:54:32.877Z,55.70
2018-07-15T07:57:01.278Z,54.70
2018-07-15T07:59:29.713Z,53.90
2018-07-15T08:01:58.140Z,53.70
2018-07-15T08:04:26.516Z,54.20
2018-07-15T08:06:54.898Z,55.80
2018-07-15T08:09:23.263Z,54.50
2018-07-15T08:11:51.673Z,49.40
2018-07-15T08:14:20.041Z,53.10
2018-07-15T08:19:11.170Z,53.10
2018-07-15T08:21:39.558Z,54.10
2018-07-15T08:24:08.490Z,52.90
2018-07-15T08:26:36.881Z,50.40
2018-07-15T08:29:05.396Z,48.60
2018-07-15T08:31:33.782Z,47.30
2018-07-15T08:34:02.217Z,47.20
2018-07-15T08:36:30.618Z,48.20
2018-07-15T08:38:59.363Z,48.90
2018-07-15T08:41:27.792Z,48.40
2018-07-15T08:43:56.178Z,49.30
2018-07-15T08:46:24.602Z,49.50
2018-07-15T08:48:53.330Z,50.70
2018-07-15T08:51:21.990Z,49.30
2018-07-15T08:53:50.406Z,50.30
2018-07-15T08:56:18.791Z,50.40
2018-07-15T08:58:47.180Z,50.60
2018-07-15T09:01:15.576Z,51.10
2018-07-15T09:03:43.997Z,51.40
2018-07-15T09:06:12.599Z,51.80
2018-07-15T09:08:41.183Z,52.40
2018-07-15T09:11:09.610Z,52.90
2018-07-15T09:16:06.245Z,52.80
2018-07-15T09:18:34.658Z,54.40
2018-07-15T09:21:03.053Z,52.70
2018-07-15T09:23:31.839Z,52.10
2018-07-15T09:26:00.210Z,52.10
2018-07-15T09:28:28.586Z,52.00
2018-07-15T09:30:56.934Z,52.60
2018-07-15T09:33:25.430Z,52.80
2018-07-15T09:35:53.771Z,52.50
2018-07-15T09:38:22.146Z,52.40
2018-07-15T09:40:50.505Z,51.70
2018-07-15T09:43:18.877Z,50.70
2018-07-15T09:45:47.254Z,50.60
2018-07-15T09:48:15.687Z,50.90
2018-07-15T09:50:44.110Z,51.40
2018-07-15T09:53:12.501Z,51.50
2018-07-15T09:55:40.890Z,50.40
2018-07-15T09:58:09.312Z,50.20
2018-07-15T10:00:43.054Z,50.30
2018-07-15T10:03:11.446Z,49.90
2018-07-15T10:05:39.814Z,48.70
2018-07-15T10:08:08.205Z,48.00
2018-07-15T10:10:36.586Z,48.80
2018-07-15T10:13:04.982Z,47.90
2018-07-15T10:15:33.353Z,50.00
2018-07-15T10:18:01.750Z,50.30
2018-07-15T10:20:30.137Z,50.50
2018-07-15T10:22:58.513Z,49.70
2018-07-15T10:25:26.905Z,49.60
2018-07-15T10:27:55.314Z,48.60
2018-07-15T10:30:23.702Z,48.70
2018-07-15T10:32:52.442Z,48.20
2018-07-15T10:35:20.813Z,48.50
2018-07-15T10:37:49.265Z,49.20
2018-07-15T10:40:17.638Z,49.40
2018-07-15T10:42:46.021Z,48.20
2018-07-15T10:45:14.394Z,48.90
2018-07-15T10:47:42.878Z,48.20
2018-07-15T10:50:11.286Z,48.30
2018-07-15T10:52:39.677Z,48.40
2018-07-15T10:55:08.587Z,47.50
2018-07-15T10:57:37.109Z,47.10
2018-07-15T11:00:05.893Z,46.60
2018-07-15T11:02:34.238Z,46.40
2018-07-15T11:05:02.667Z,46.20
2018-07-15T11:07:31.070Z,47.50
2018-07-15T11:09:59.474Z,46.30
2018-07-15T11:12:27.818Z,46.00
2018-07-15T11:14:56.190Z,47.40
2018-07-15T11:17:24.545Z,47.70
2018-07-15T11:19:52.905Z,46.50
2018-07-15T11:22:21.581Z,47.20
2018-07-15T11:24:50.013Z,47.40
2018-07-15T11:27:18.383Z,48.70
2018-07-15T11:29:46.779Z,47.10
2018-07-15T11:32:15.139Z,47.20
2018-07-15T11:34:43.634Z,47.10
2018-07-15T11:37:12.005Z,46.80
2018-07-15T11:39:40.393Z,47.20
2018-07-15T11:42:08.738Z,46.90
2018-07-15T11:44:37.193Z,46.50
2018-07-15T11:47:05.714Z,46.60
2018-07-15T11:49:34.090Z,46.30
2018-07-15T11:52:02.442Z,46.30
2018-07-15T11:56:58.938Z,46.10
2018-07-15T11:59:27.357Z,45.60
2018-07-15T12:01:55.937Z,44.50
2018-07-15T12:04:24.285Z,43.90
2018-07-15T12:06:52.658Z,45.00
2018-07-15T12:09:21.042Z,44.80
2018-07-15T12:11:49.410Z,45.30
2018-07-15T12:14:17.881Z,45.50
2018-07-15T12:16:46.262Z,45.00
2018-07-15T12:19:14.677Z,46.60
2018-07-15T12:21:43.054Z,44.50
2018-07-15T12:24:11.426Z,44.30
2018-07-15T12:26:39.805Z,44.40
2018-07-15T12:29:08.445Z,45.00
2018-07-15T12:31:36.873Z,45.30
2018-07-15T12:34:05.253Z,43.70
2018-07-15T12:36:33.653Z,44.10
2018-07-15T12:39:02.017Z,44.70
2018-07-15T12:41:30.425Z,45.30
2018-07-15T12:43:58.793Z,45.30
2018-07-15T12:46:27.205Z,45.10
2018-07-15T12:48:55.569Z,44.30
2018-07-15T12:51:23.946Z,44.80
2018-07-15T12:53:52.313Z,44.30
2018-07-15T12:56:20.737Z,45.00
2018-07-15T12:58:49.437Z,44.80
2018-07-15T13:01:17.820Z,44.40
2018-07-15T13:03:46.186Z,43.70
2018-07-15T13:06:14.593Z,44.60
2018-07-15T13:08:42.953Z,45.40
2018-07-15T13:11:11.350Z,44.70
2018-07-15T13:13:39.718Z,44.60
2018-07-15T13:16:08.176Z,45.70
2018-07-15T13:18:36.573Z,45.60
2018-07-15T13:21:04.953Z,44.30
2018-07-15T13:23:33.366Z,45.50
2018-07-15T13:26:01.756Z,45.50
2018-07-15T13:28:30.175Z,44.70
2018-07-15T13:30:58.712Z,45.30
2018-07-15T13:33:27.117Z,45.40
2018-07-15T13:35:55.626Z,44.50
2018-07-15T13:38:24.053Z,43.90
2018-07-15T13:40:52.423Z,43.00
2018-07-15T13:43:20.805Z,44.00
2018-07-15T13:45:49.175Z,45.40
2018-07-15T13:48:17.553Z,45.40
2018-07-15T13:50:45.922Z,45.10
2018-07-15T13:53:14.325Z,45.60
2018-07-15T13:55:42.741Z,45.30
2018-07-15T13:58:11.138Z,45.60
2018-07-15T14:00:39.514Z,44.70
2018-07-15T14:03:07.928Z,45.10
2018-07-15T14:05:36.326Z,45.50
2018-07-15T14:08:04.994Z,45.00
2018-07-15T14:13:01.506Z,45.30
2018-07-15T14:15:29.869Z,45.70
2018-07-15T14:17:58.269Z,46.00
2018-07-15T14:20:26.649Z,44.20
2018-07-15T14:22:55.021Z,45.10
2018-07-15T14:25:23.382Z,46.00
2018-07-15T14:27:51.794Z,45.50
2018-07-15T14:30:20.133Z,45.50
2018-07-15T14:32:48.494Z,44.90
2018-07-15T14:35:16.834Z,45.30
2018-07-15T14:37:45.214Z,44.80
2018-07-15T14:40:13.574Z,45.30
2018-07-15T14:42:41.990Z,45.30
2018-07-15T14:45:10.369Z,46.00
2018-07-15T14:47:38.738Z,45.70
2018-07-15T14:50:07.202Z,45.70
2018-07-15T14:52:35.821Z,45.30
2018-07-15T14:55:04.290Z,44.70
2018-07-15T14:57:32.681Z,44.20
2018-07-15T15:00:01.080Z,44.40
2018-07-15T15:04:57.557Z,44.40
2018-07-15T15:07:25.924Z,45.70
2018-07-15T15:09:54.270Z,44.90
2018-07-15T15:12:22.645Z,45.90
2018-07-15T15:14:51.193Z,44.80
2018-07-15T15:17:19.570Z,44.60
2018-07-15T15:19:47.930Z,44.60
2018-07-15T15:22:16.362Z,44.60
2018-07-15T15:24:44.734Z,45.60
2018-07-15T15:27:13.242Z,44.40
2018-07-15T15:29:41.582Z,44.20
2018-07-15T15:32:09.986Z,44.40
2018-07-15T15:34:38.342Z,43.70
2018-07-15T15:37:06.737Z,44.30
2018-07-15T15:39:35.098Z,43.80
2018-07-15T15:42:03.689Z,43.80
2018-07-15T15:44:32.093Z,43.70
2018-07-15T15:47:00.457Z,44.00
2018-07-15T15:49:28.869Z,45.10
2018-07-15T15:51:57.245Z,45.30
2018-07-15T15:54:25.662Z,44.80
2018-07-15T15:56:54.053Z,45.10
2018-07-15T15:59:22.433Z,44.30
2018-07-15T16:01:50.813Z,45.30
2018-07-15T16:04:19.253Z,44.40
2018-07-15T16:06:47.651Z,44.90
2018-07-15T16:09:16.158Z,44.50
2018-07-15T16:11:44.526Z,44.10
2018-07-15T16:14:12.905Z,44.70
2018-07-15T16:16:41.303Z,44.10
2018-07-15T16:19:09.708Z,44.00
2018-07-15T16:21:38.088Z,45.20
2018-07-15T16:24:06.686Z,45.80
2018-07-15T16:26:35.053Z,45.70
2018-07-15T16:29:03.469Z,45.70
2018-07-15T16:31:31.957Z,45.80
2018-07-15T16:34:00.341Z,45.60
2018-07-15T16:36:28.801Z,46.30
2018-07-15T16:38:57.205Z,44.70
2018-07-15T16:41:25.561Z,44.60
2018-07-15T16:43:53.982Z,43.90
2018-07-15T16:46:22.373Z,44.50
2018-07-15T16:48:50.754Z,46.20
2018-07-15T16:51:19.113Z,45.90
2018-07-15T16:53:47.579Z,45.30
2018-07-15T16:56:16.035Z,44.70
2018-07-15T16:58:44.424Z,45.00
2018-07-15T17:01:12.795Z,45.40
2018-07-15T17:03:41.185Z,45.90
2018-07-15T17:06:09.591Z,46.60
2018-07-15T17:08:38.047Z,46.00
2018-07-15T17:11:06.740Z,46.20
2018-07-15T17:13:35.366Z,45.90
2018-07-15T17:16:03.924Z,46.90
2018-07-15T17:18:32.311Z,47.10
2018-07-15T17:21:00.690Z,46.20
2018-07-15T17:23:29.190Z,46.10
2018-07-15T17:25:57.601Z,46.30
2018-07-15T17:28:25.993Z,46.60
2018-07-15T17:30:54.473Z,45.80
2018-07-15T17:33:23.022Z,46.30
2018-07-15T17:35:51.394Z,46.60
2018-07-15T17:38:19.801Z,46.10
2018-07-15T17:40:48.201Z,46.40
2018-07-15T17:43:16.662Z,45.80
2018-07-15T17:45:45.097Z,46.50
2018-07-15T17:48:13.474Z,46.00
2018-07-15T17:50:41.997Z,46.80
2018-07-15T17:53:10.462Z,46.00
2018-07-15T17:55:38.861Z,47.20
2018-07-15T17:58:07.230Z,46.10
2018-07-15T18:00:35.606Z,46.40
2018-07-15T18:03:03.978Z,47.10
2018-07-15T18:05:32.402Z,46.10
2018-07-15T18:08:00.806Z,46.90
2018-07-15T18:10:29.712Z,47.70
2018-07-15T18:12:58.094Z,47.90
2018-07-15T18:15:26.501Z,46.80
2018-07-15T18:17:54.940Z,47.80
2018-07-15T18:20:23.409Z,48.30
2018-07-15T18:22:51.786Z,47.90
2018-07-15T18:25:20.180Z,48.50
2018-07-15T18:27:48.547Z,47.70
2018-07-15T18:30:16.971Z,48.00
2018-07-15T18:32:45.346Z,48.20
2018-07-15T18:35:13.757Z,48.60
2018-07-15T18:37:42.174Z,48.50
2018-07-15T18:40:10.572Z,48.70
2018-07-15T18:42:38.967Z,49.50
2018-07-15T18:45:07.515Z,49.70
2018-07-15T18:47:35.733Z,49.20
2018-07-15T18:50:04.189Z,49.20
2018-07-15T18:52:32.565Z,49.70
2018-07-15T18:55:01.037Z,50.40
2018-07-15T18:57:29.441Z,50.00
2018-07-15T18:59:57.890Z,49.60
2018-07-15T19:02:26.258Z,49.60
2018-07-15T19:04:54.682Z,49.70
2018-07-15T19:07:23.077Z,49.90
2018-07-15T19:09:51.446Z,50.10
2018-07-15T19:12:20.591Z,50.40
2018-07-15T19:14:50.087Z,50.50
2018-07-15T19:17:18.865Z,51.00
2018-07-15T19:19:47.349Z,51.10
2018-07-15T19:22:16.634Z,51.40
2018-07-15T19:24:45.484Z,51.30
2018-07-15T19:27:13.830Z,51.60
2018-07-15T19:29:42.230Z,52.00
2018-07-15T19:32:10.729Z,52.10
2018-07-15T19:34:39.098Z,52.20
2018-07-15T19:37:07.467Z,52.40
2018-07-15T19:39:35.953Z,52.50
2018-07-15T19:42:04.339Z,52.10
2018-07-15T19:44:32.745Z,52.40
2018-07-15T19:47:01.242Z,52.40
2018-07-15T19:49:29.595Z,52.50
2018-07-15T19:51:57.973Z,52.70
2018-07-15T19:54:26.421Z,53.00
2018-07-15T19:56:54.814Z,53.10
2018-07-15T19:59:23.190Z,53.20
2018-07-15T20:01:51.633Z,53.60
2018-07-15T20:04:20.009Z,53.70
2018-07-15T20:06:48.542Z,53.70
2018-07-15T20:09:16.911Z,53.60
2018-07-15T20:11:45.289Z,53.80
2018-07-15T20:14:13.692Z,54.00
2018-07-15T20:16:42.080Z,53.90
2018-07-15T20:19:10.449Z,53.80
2018-07-15T20:21:39.005Z,53.80
2018-07-15T20:24:07.378Z,54.10
2018-07-15T20:26:35.797Z,54.50
2018-07-15T20:29:04.233Z,54.80
2018-07-15T20:31:32.666Z,54.20
2018-07-15T20:34:01.131Z,54.40
2018-07-15T20:36:29.562Z,54.20
2018-07-15T20:38:57.942Z,54.40
2018-07-15T20:41:26.360Z,54.50
2018-07-15T20:43:54.723Z,54.60
2018-07-15T20:46:23.153Z,54.80
2018-07-15T20:48:51.555Z,54.90
2018-07-15T20:51:19.942Z,54.90
2018-07-15T20:53:48.318Z,55.10
2018-07-15T20:56:16.752Z,55.10
2018-07-15T20:58:45.070Z,55.10
2018-07-15T21:01:13.460Z,55.10
2018-07-15T21:03:41.857Z,55.10
2018-07-15T21:06:10.236Z,55.20
2018-07-15T21:08:38.585Z,55.20
2018-07-15T21:11:06.957Z,55.40
2018-07-15T21:13:35.356Z,55.40
2018-07-15T21:16:03.766Z,55.70
2018-07-15T21:18:32.137Z,55.90
2018-07-15T21:21:00.505Z,56.10
2018-07-15T21:23:28.870Z,56.40
2018-07-15T21:25:57.286Z,56.20
2018-07-15T21:28:25.650Z,56.20
2018-07-15T21:30:54.049Z,56.40
2018-07-15T21:33:22.401Z,56.60
2018-07-15T21:35:50.765Z,56.60
2018-07-15T21:38:19.129Z,56.90
2018-07-15T21:40:47.538Z,57.20
2018-07-15T21:43:15.881Z,57.30
2018-07-15T21:45:44.242Z,57.40
2018-07-15T21:48:12.733Z,57.50
2018-07-15T21:50:41.101Z,57.40
2018-07-15T21:53:09.469Z,57.60
2018-07-15T21:55:37.850Z,57.80
2018-07-15T21:58:06.277Z,58.00
2018-07-15T22:00:34.675Z,58.10
2018-07-15T22:03:03.091Z,58.20
2018-07-15T22:05:31.477Z,58.50
2018-07-15T22:08:11.228Z,58.40
2018-07-15T22:10:43.312Z,58.50
2018-07-15T22:13:11.650Z,58.80
2018-07-15T22:15:40.201Z,58.90
2018-07-15T22:18:08.653Z,59.10
2018-07-15T22:20:37.470Z,59.10
2018-07-15T22:23:06.301Z,59.40
2018-07-15T22:25:34.726Z,59.60
2018-07-15T22:28:03.417Z,59.70
2018-07-15T22:30:31.830Z,59.80
2018-07-15T22:33:00.234Z,59.70
2018-07-15T22:35:28.621Z,59.90
2018-07-15T22:37:57.045Z,60.10
2018-07-15T22:40:25.538Z,60.40
2018-07-15T22:42:53.924Z,60.20
2018-07-15T22:45:22.328Z,60.30
2018-07-15T22:47:50.730Z,60.60
2018-07-15T22:50:19.101Z,60.70
2018-07-15T22:52:47.493Z,60.90
2018-07-15T22:55:15.878Z,61.00
2018-07-15T22:57:44.247Z,61.10
2018-07-15T23:00:12.690Z,61.10
2018-07-15T23:02:41.058Z,61.10
2018-07-15T23:05:48.295Z,61.20
2018-07-15T23:08:16.655Z,61.30
2018-07-15T23:10:45.023Z,61.40
2018-07-15T23:13:13.939Z,61.60
2018-07-15T23:15:42.722Z,61.80
2018-07-15T23:18:11.094Z,62.00
2018-07-15T23:20:40.250Z,62.20
2018-07-15T23:23:09.390Z,62.20
2018-07-15T23:25:37.787Z,62.30
2018-07-15T23:28:07.022Z,62.30
2018-07-15T23:30:36.081Z,62.40
2018-07-15T23:33:04.964Z,62.60
2018-07-15T23:35:33.545Z,62.80
2018-07-15T23:38:01.905Z,62.90
2018-07-15T23:40:30.277Z,63.00
2018-07-15T23:42:59.290Z,63.10
2018-07-15T23:45:28.598Z,63.30
2018-07-15T23:47:57.329Z,63.30
2018-07-15T23:50:25.933Z,63.30
2018-07-15T23:52:54.546Z,63.50
2018-07-15T23:55:23.138Z,63.60
2018-07-15T23:57:52.171Z,63.60
